sensor_id;sensor_type;location;lat;lon;timestamp;P1;durP1;ratioP1;P2;durP2;ratioP2
8526;SDS011;4301;48.362;8.478;2023-05-14T00:01:40;6.53;;;5.70;;
8526;SDS011;4301;48.362;8.478;2023-05-14T00:04:08;6.93;;;5.90;;
8526;SDS011;4301;48.362;8.478;2023-05-14T00:06:35;7.70;;;5.93;;
8526;SDS011;4301;48.362;8.478;2023-05-14T00:09:02;7.13;;;6.37;;
8526;SDS011;4301;48.362;8.478;2023-05-14T00:11:30;8.50;;;6.70;;
8526;SDS011;4301;48.362;8.478;2023-05-14T00:13:57;6.63;;;5.63;;
8526;SDS011;4301;48.362;8.478;2023-05-14T00:16:24;7.07;;;6.37;;
8526;SDS011;4301;48.362;8.478;2023-05-14T00:18:51;7.63;;;6.27;;
8526;SDS011;4301;48.362;8.478;2023-05-14T00:21:19;8.47;;;6.67;;
8526;SDS011;4301;48.362;8.478;2023-05-14T00:23:46;7.70;;;6.83;;
8526;SDS011;4301;48.362;8.478;2023-05-14T00:26:13;9.70;;;7.67;;
8526;SDS011;4301;48.362;8.478;2023-05-14T00:28:40;9.90;;;8.00;;
8526;SDS011;4301;48.362;8.478;2023-05-14T00:31:07;9.13;;;7.23;;
8526;SDS011;4301;48.362;8.478;2023-05-14T00:33:35;6.63;;;5.97;;
8526;SDS011;4301;48.362;8.478;2023-05-14T00:36:02;7.43;;;6.37;;
8526;SDS011;4301;48.362;8.478;2023-05-14T00:38:30;7.27;;;6.17;;
8526;SDS011;4301;48.362;8.478;2023-05-14T00:40:57;8.47;;;7.00;;
8526;SDS011;4301;48.362;8.478;2023-05-14T00:43:24;8.50;;;7.07;;
8526;SDS011;4301;48.362;8.478;2023-05-14T00:45:52;8.83;;;7.17;;
8526;SDS011;4301;48.362;8.478;2023-05-14T00:48:20;7.83;;;6.87;;
8526;SDS011;4301;48.362;8.478;2023-05-14T00:50:48;7.67;;;6.80;;
8526;SDS011;4301;48.362;8.478;2023-05-14T00:53:15;7.80;;;7.00;;
8526;SDS011;4301;48.362;8.478;2023-05-14T00:55:45;7.63;;;6.83;;
8526;SDS011;4301;48.362;8.478;2023-05-14T00:58:14;9.00;;;6.83;;
8526;SDS011;4301;48.362;8.478;2023-05-14T01:00:41;7.03;;;6.33;;
8526;SDS011;4301;48.362;8.478;2023-05-14T01:03:08;6.93;;;6.23;;
8526;SDS011;4301;48.362;8.478;2023-05-14T01:05:38;8.67;;;6.63;;
8526;SDS011;4301;48.362;8.478;2023-05-14T01:08:12;9.77;;;6.33;;
8526;SDS011;4301;48.362;8.478;2023-05-14T01:10:48;8.17;;;6.47;;
8526;SDS011;4301;48.362;8.478;2023-05-14T01:13:18;6.83;;;6.13;;
8526;SDS011;4301;48.362;8.478;2023-05-14T01:15:53;8.43;;;6.80;;
8526;SDS011;4301;48.362;8.478;2023-05-14T01:18:22;7.13;;;6.20;;
8526;SDS011;4301;48.362;8.478;2023-05-14T01:20:52;7.93;;;6.70;;
8526;SDS011;4301;48.362;8.478;2023-05-14T01:23:21;11.23;;;6.50;;
8526;SDS011;4301;48.362;8.478;2023-05-14T01:25:48;6.20;;;5.60;;
8526;SDS011;4301;48.362;8.478;2023-05-14T01:28:15;8.47;;;6.57;;
8526;SDS011;4301;48.362;8.478;2023-05-14T01:30:44;8.77;;;6.33;;
8526;SDS011;4301;48.362;8.478;2023-05-14T01:33:15;7.23;;;6.37;;
8526;SDS011;4301;48.362;8.478;2023-05-14T01:35:44;6.80;;;6.10;;
8526;SDS011;4301;48.362;8.478;2023-05-14T01:38:12;6.97;;;6.27;;
8526;SDS011;4301;48.362;8.478;2023-05-14T01:40:44;8.10;;;6.27;;
8526;SDS011;4301;48.362;8.478;2023-05-14T01:43:11;6.53;;;5.87;;
8526;SDS011;4301;48.362;8.478;2023-05-14T01:45:40;7.00;;;6.30;;
8526;SDS011;4301;48.362;8.478;2023-05-14T01:48:07;6.90;;;6.20;;
8526;SDS011;4301;48.362;8.478;2023-05-14T01:50:34;8.83;;;6.30;;
8526;SDS011;4301;48.362;8.478;2023-05-14T01:53:01;7.27;;;6.37;;
8526;SDS011;4301;48.362;8.478;2023-05-14T01:55:28;8.77;;;6.10;;
8526;SDS011;4301;48.362;8.478;2023-05-14T01:57:56;7.60;;;6.27;;
8526;SDS011;4301;48.362;8.478;2023-05-14T02:00:23;9.13;;;6.93;;
8526;SDS011;4301;48.362;8.478;2023-05-14T02:02:50;10.17;;;7.13;;
8526;SDS011;4301;48.362;8.478;2023-05-14T02:05:17;7.97;;;7.13;;
8526;SDS011;4301;48.362;8.478;2023-05-14T02:07:45;8.90;;;7.63;;
8526;SDS011;4301;48.362;8.478;2023-05-14T02:10:12;8.90;;;7.57;;
8526;SDS011;4301;48.362;8.478;2023-05-14T02:12:38;6.60;;;6.00;;
8526;SDS011;4301;48.362;8.478;2023-05-14T02:15:07;9.27;;;6.97;;
8526;SDS011;4301;48.362;8.478;2023-05-14T02:17:35;8.23;;;6.23;;
8526;SDS011;4301;48.362;8.478;2023-05-14T02:20:03;6.93;;;6.23;;
8526;SDS011;4301;48.362;8.478;2023-05-14T02:22:31;5.93;;;5.33;;
8526;SDS011;4301;48.362;8.478;2023-05-14T02:24:58;7.33;;;6.07;;
8526;SDS011;4301;48.362;8.478;2023-05-14T02:27:25;7.33;;;6.53;;
8526;SDS011;4301;48.362;8.478;2023-05-14T02:29:52;6.80;;;6.10;;
8526;SDS011;4301;48.362;8.478;2023-05-14T02:32:22;7.13;;;6.30;;
8526;SDS011;4301;48.362;8.478;2023-05-14T02:34:48;6.10;;;5.50;;
8526;SDS011;4301;48.362;8.478;2023-05-14T02:37:15;6.67;;;5.67;;
8526;SDS011;4301;48.362;8.478;2023-05-14T02:39:42;5.80;;;5.20;;
8526;SDS011;4301;48.362;8.478;2023-05-14T02:42:09;11.23;;;6.03;;
8526;SDS011;4301;48.362;8.478;2023-05-14T02:44:36;6.67;;;5.93;;
8526;SDS011;4301;48.362;8.478;2023-05-14T02:47:03;7.37;;;6.23;;
8526;SDS011;4301;48.362;8.478;2023-05-14T02:49:32;7.20;;;6.17;;
8526;SDS011;4301;48.362;8.478;2023-05-14T02:51:59;8.13;;;6.60;;
8526;SDS011;4301;48.362;8.478;2023-05-14T02:54:26;8.23;;;6.57;;
8526;SDS011;4301;48.362;8.478;2023-05-14T02:56:53;7.87;;;6.27;;
8526;SDS011;4301;48.362;8.478;2023-05-14T02:59:20;7.30;;;6.50;;
8526;SDS011;4301;48.362;8.478;2023-05-14T03:01:47;7.83;;;6.93;;
8526;SDS011;4301;48.362;8.478;2023-05-14T03:04:14;9.13;;;7.07;;
8526;SDS011;4301;48.362;8.478;2023-05-14T03:06:43;7.00;;;6.27;;
8526;SDS011;4301;48.362;8.478;2023-05-14T03:09:10;7.33;;;6.53;;
8526;SDS011;4301;48.362;8.478;2023-05-14T03:11:37;7.23;;;6.50;;
8526;SDS011;4301;48.362;8.478;2023-05-14T03:14:03;10.83;;;6.97;;
8526;SDS011;4301;48.362;8.478;2023-05-14T03:16:30;7.00;;;6.30;;
8526;SDS011;4301;48.362;8.478;2023-05-14T03:18:57;8.27;;;6.77;;
8526;SDS011;4301;48.362;8.478;2023-05-14T03:21:24;7.23;;;6.53;;
8526;SDS011;4301;48.362;8.478;2023-05-14T03:23:52;6.50;;;5.80;;
8526;SDS011;4301;48.362;8.478;2023-05-14T03:26:19;6.43;;;5.57;;
8526;SDS011;4301;48.362;8.478;2023-05-14T03:28:46;5.80;;;5.20;;
8526;SDS011;4301;48.362;8.478;2023-05-14T03:31:13;6.33;;;5.73;;
8526;SDS011;4301;48.362;8.478;2023-05-14T03:33:40;6.67;;;6.00;;
8526;SDS011;4301;48.362;8.478;2023-05-14T03:36:07;7.93;;;6.47;;
8526;SDS011;4301;48.362;8.478;2023-05-14T03:38:35;11.17;;;7.60;;
8526;SDS011;4301;48.362;8.478;2023-05-14T03:41:03;9.30;;;7.20;;
8526;SDS011;4301;48.362;8.478;2023-05-14T03:43:30;10.00;;;8.13;;
8526;SDS011;4301;48.362;8.478;2023-05-14T03:45:57;9.13;;;8.00;;
8526;SDS011;4301;48.362;8.478;2023-05-14T03:48:24;8.33;;;7.47;;
8526;SDS011;4301;48.362;8.478;2023-05-14T03:50:51;6.80;;;6.10;;
8526;SDS011;4301;48.362;8.478;2023-05-14T03:53:18;6.87;;;6.17;;
8526;SDS011;4301;48.362;8.478;2023-05-14T03:55:45;6.73;;;6.03;;
8526;SDS011;4301;48.362;8.478;2023-05-14T03:58:13;7.87;;;6.37;;
8526;SDS011;4301;48.362;8.478;2023-05-14T04:00:40;7.63;;;6.37;;
8526;SDS011;4301;48.362;8.478;2023-05-14T04:03:07;9.50;;;7.03;;
8526;SDS011;4301;48.362;8.478;2023-05-14T04:05:34;9.17;;;5.97;;
8526;SDS011;4301;48.362;8.478;2023-05-14T04:08:01;8.63;;;7.03;;
8526;SDS011;4301;48.362;8.478;2023-05-14T04:10:28;7.00;;;6.17;;
8526;SDS011;4301;48.362;8.478;2023-05-14T04:12:56;6.77;;;6.07;;
8526;SDS011;4301;48.362;8.478;2023-05-14T04:15:24;10.70;;;6.40;;
8526;SDS011;4301;48.362;8.478;2023-05-14T04:17:52;7.43;;;6.73;;
8526;SDS011;4301;48.362;8.478;2023-05-14T04:20:18;6.80;;;6.10;;
8526;SDS011;4301;48.362;8.478;2023-05-14T04:22:45;7.03;;;6.33;;
8526;SDS011;4301;48.362;8.478;2023-05-14T04:25:12;8.47;;;7.03;;
8526;SDS011;4301;48.362;8.478;2023-05-14T04:27:39;8.00;;;7.20;;
8526;SDS011;4301;48.362;8.478;2023-05-14T04:30:06;7.63;;;6.33;;
8526;SDS011;4301;48.362;8.478;2023-05-14T04:32:36;7.17;;;6.47;;
8526;SDS011;4301;48.362;8.478;2023-05-14T04:35:03;9.03;;;6.83;;
8526;SDS011;4301;48.362;8.478;2023-05-14T04:37:31;8.70;;;7.03;;
8526;SDS011;4301;48.362;8.478;2023-05-14T04:39:58;9.27;;;8.10;;
8526;SDS011;4301;48.362;8.478;2023-05-14T04:42:25;8.57;;;7.67;;
8526;SDS011;4301;48.362;8.478;2023-05-14T04:44:51;7.43;;;6.07;;
8526;SDS011;4301;48.362;8.478;2023-05-14T04:47:18;7.07;;;5.70;;
8526;SDS011;4301;48.362;8.478;2023-05-14T04:49:47;7.07;;;6.37;;
8526;SDS011;4301;48.362;8.478;2023-05-14T04:52:14;6.93;;;6.20;;
8526;SDS011;4301;48.362;8.478;2023-05-14T04:54:41;7.00;;;6.30;;
8526;SDS011;4301;48.362;8.478;2023-05-14T04:57:08;7.50;;;6.70;;
8526;SDS011;4301;48.362;8.478;2023-05-14T04:59:35;6.87;;;6.17;;
8526;SDS011;4301;48.362;8.478;2023-05-14T05:02:02;6.60;;;5.90;;
8526;SDS011;4301;48.362;8.478;2023-05-14T05:04:29;7.63;;;6.47;;
8526;SDS011;4301;48.362;8.478;2023-05-14T05:06:57;7.30;;;6.37;;
8526;SDS011;4301;48.362;8.478;2023-05-14T05:09:24;7.73;;;6.50;;
8526;SDS011;4301;48.362;8.478;2023-05-14T05:11:51;7.70;;;6.80;;
8526;SDS011;4301;48.362;8.478;2023-05-14T05:14:18;9.30;;;7.00;;
8526;SDS011;4301;48.362;8.478;2023-05-14T05:16:45;7.70;;;6.50;;
8526;SDS011;4301;48.362;8.478;2023-05-14T05:19:12;9.20;;;7.00;;
8526;SDS011;4301;48.362;8.478;2023-05-14T05:21:38;10.00;;;6.80;;
8526;SDS011;4301;48.362;8.478;2023-05-14T05:24:07;9.30;;;7.07;;
8526;SDS011;4301;48.362;8.478;2023-05-14T05:26:34;7.10;;;6.27;;
8526;SDS011;4301;48.362;8.478;2023-05-14T05:29:01;8.53;;;6.07;;
8526;SDS011;4301;48.362;8.478;2023-05-14T05:31:28;8.00;;;6.97;;
8526;SDS011;4301;48.362;8.478;2023-05-14T05:33:56;7.80;;;6.30;;
8526;SDS011;4301;48.362;8.478;2023-05-14T05:36:23;7.37;;;6.50;;
8526;SDS011;4301;48.362;8.478;2023-05-14T05:38:50;7.70;;;6.90;;
8526;SDS011;4301;48.362;8.478;2023-05-14T05:41:19;7.37;;;6.63;;
8526;SDS011;4301;48.362;8.478;2023-05-14T05:43:46;7.43;;;6.73;;
8526;SDS011;4301;48.362;8.478;2023-05-14T05:46:13;7.33;;;6.20;;
8526;SDS011;4301;48.362;8.478;2023-05-14T05:48:40;8.40;;;6.47;;
8526;SDS011;4301;48.362;8.478;2023-05-14T05:51:06;8.83;;;7.17;;
8526;SDS011;4301;48.362;8.478;2023-05-14T05:53:33;9.57;;;6.90;;
8526;SDS011;4301;48.362;8.478;2023-05-14T05:56:00;8.03;;;7.00;;
8526;SDS011;4301;48.362;8.478;2023-05-14T05:58:29;7.77;;;6.53;;
8526;SDS011;4301;48.362;8.478;2023-05-14T06:00:56;8.17;;;7.10;;
8526;SDS011;4301;48.362;8.478;2023-05-14T06:03:23;9.10;;;7.20;;
8526;SDS011;4301;48.362;8.478;2023-05-14T06:05:51;7.90;;;7.10;;
8526;SDS011;4301;48.362;8.478;2023-05-14T06:08:18;9.67;;;7.37;;
8526;SDS011;4301;48.362;8.478;2023-05-14T06:10:45;7.93;;;7.13;;
8526;SDS011;4301;48.362;8.478;2023-05-14T06:13:11;7.40;;;6.60;;
8526;SDS011;4301;48.362;8.478;2023-05-14T06:15:40;7.93;;;7.13;;
8526;SDS011;4301;48.362;8.478;2023-05-14T06:18:07;8.23;;;7.33;;
8526;SDS011;4301;48.362;8.478;2023-05-14T06:20:34;8.97;;;7.70;;
8526;SDS011;4301;48.362;8.478;2023-05-14T06:23:00;9.73;;;7.07;;
8526;SDS011;4301;48.362;8.478;2023-05-14T06:25:27;8.07;;;7.27;;
8526;SDS011;4301;48.362;8.478;2023-05-14T06:27:54;7.67;;;6.77;;
8526;SDS011;4301;48.362;8.478;2023-05-14T06:30:21;7.83;;;7.13;;
8526;SDS011;4301;48.362;8.478;2023-05-14T06:32:49;8.43;;;7.00;;
8526;SDS011;4301;48.362;8.478;2023-05-14T06:35:17;7.67;;;6.80;;
8526;SDS011;4301;48.362;8.478;2023-05-14T06:37:44;8.20;;;7.07;;
8526;SDS011;4301;48.362;8.478;2023-05-14T06:40:11;8.07;;;7.27;;
8526;SDS011;4301;48.362;8.478;2023-05-14T06:42:39;7.47;;;6.50;;
8526;SDS011;4301;48.362;8.478;2023-05-14T06:45:06;7.87;;;7.07;;
8526;SDS011;4301;48.362;8.478;2023-05-14T06:47:34;7.50;;;6.70;;
8526;SDS011;4301;48.362;8.478;2023-05-14T06:50:02;7.53;;;6.73;;
8526;SDS011;4301;48.362;8.478;2023-05-14T06:52:29;7.23;;;6.50;;
8526;SDS011;4301;48.362;8.478;2023-05-14T06:54:56;7.50;;;6.60;;
8526;SDS011;4301;48.362;8.478;2023-05-14T06:57:23;7.10;;;6.40;;
8526;SDS011;4301;48.362;8.478;2023-05-14T06:59:50;6.43;;;5.83;;
8526;SDS011;4301;48.362;8.478;2023-05-14T07:02:17;6.73;;;5.53;;
8526;SDS011;4301;48.362;8.478;2023-05-14T07:04:44;6.77;;;6.17;;
8526;SDS011;4301;48.362;8.478;2023-05-14T07:07:13;6.63;;;6.00;;
8526;SDS011;4301;48.362;8.478;2023-05-14T07:09:44;6.73;;;6.10;;
8526;SDS011;4301;48.362;8.478;2023-05-14T07:12:11;6.70;;;6.00;;
8526;SDS011;4301;48.362;8.478;2023-05-14T07:14:38;6.30;;;5.70;;
8526;SDS011;4301;48.362;8.478;2023-05-14T07:17:05;6.13;;;5.53;;
8526;SDS011;4301;48.362;8.478;2023-05-14T07:19:32;6.47;;;5.80;;
8526;SDS011;4301;48.362;8.478;2023-05-14T07:21:59;6.07;;;5.47;;
8526;SDS011;4301;48.362;8.478;2023-05-14T07:24:27;8.20;;;5.20;;
8526;SDS011;4301;48.362;8.478;2023-05-14T07:26:54;6.43;;;4.83;;
8526;SDS011;4301;48.362;8.478;2023-05-14T07:29:21;5.90;;;5.30;;
8526;SDS011;4301;48.362;8.478;2023-05-14T07:31:49;5.73;;;5.10;;
8526;SDS011;4301;48.362;8.478;2023-05-14T07:34:16;5.70;;;5.20;;
8526;SDS011;4301;48.362;8.478;2023-05-14T07:36:43;5.50;;;5.00;;
8526;SDS011;4301;48.362;8.478;2023-05-14T07:39:10;5.50;;;5.00;;
8526;SDS011;4301;48.362;8.478;2023-05-14T07:41:38;5.67;;;5.07;;
8526;SDS011;4301;48.362;8.478;2023-05-14T07:44:05;5.90;;;5.30;;
8526;SDS011;4301;48.362;8.478;2023-05-14T07:46:32;5.77;;;5.27;;
8526;SDS011;4301;48.362;8.478;2023-05-14T07:48:59;5.27;;;4.77;;
8526;SDS011;4301;48.362;8.478;2023-05-14T07:51:26;6.00;;;5.00;;
8526;SDS011;4301;48.362;8.478;2023-05-14T07:53:53;6.17;;;5.57;;
8526;SDS011;4301;48.362;8.478;2023-05-14T07:56:20;5.80;;;5.20;;
8526;SDS011;4301;48.362;8.478;2023-05-14T07:58:49;5.97;;;5.37;;
8526;SDS011;4301;48.362;8.478;2023-05-14T08:01:16;7.47;;;5.10;;
8526;SDS011;4301;48.362;8.478;2023-05-14T08:03:43;6.77;;;5.00;;
8526;SDS011;4301;48.362;8.478;2023-05-14T08:06:10;6.00;;;5.23;;
8526;SDS011;4301;48.362;8.478;2023-05-14T08:08:37;6.87;;;5.47;;
8526;SDS011;4301;48.362;8.478;2023-05-14T08:11:04;7.40;;;5.10;;
8526;SDS011;4301;48.362;8.478;2023-05-14T08:13:31;5.87;;;5.27;;
8526;SDS011;4301;48.362;8.478;2023-05-14T08:15:59;5.37;;;4.80;;
8526;SDS011;4301;48.362;8.478;2023-05-14T08:18:26;6.10;;;4.53;;
8526;SDS011;4301;48.362;8.478;2023-05-14T08:20:53;4.77;;;4.37;;
8526;SDS011;4301;48.362;8.478;2023-05-14T08:23:21;4.80;;;4.37;;
8526;SDS011;4301;48.362;8.478;2023-05-14T08:25:48;4.87;;;4.37;;
8526;SDS011;4301;48.362;8.478;2023-05-14T08:28:15;6.13;;;4.90;;
8526;SDS011;4301;48.362;8.478;2023-05-14T08:30:42;6.27;;;4.53;;
8526;SDS011;4301;48.362;8.478;2023-05-14T08:33:10;5.07;;;4.57;;
8526;SDS011;4301;48.362;8.478;2023-05-14T08:35:37;5.50;;;5.07;;
8526;SDS011;4301;48.362;8.478;2023-05-14T08:38:04;5.70;;;5.10;;
8526;SDS011;4301;48.362;8.478;2023-05-14T08:40:31;5.17;;;4.60;;
8526;SDS011;4301;48.362;8.478;2023-05-14T08:42:58;4.77;;;4.37;;
8526;SDS011;4301;48.362;8.478;2023-05-14T08:45:28;5.43;;;4.90;;
8526;SDS011;4301;48.362;8.478;2023-05-14T08:47:58;5.73;;;4.67;;
8526;SDS011;4301;48.362;8.478;2023-05-14T08:50:27;5.17;;;4.67;;
8526;SDS011;4301;48.362;8.478;2023-05-14T08:52:55;5.63;;;5.10;;
8526;SDS011;4301;48.362;8.478;2023-05-14T08:55:22;6.50;;;5.90;;
8526;SDS011;4301;48.362;8.478;2023-05-14T08:57:50;6.03;;;5.53;;
8526;SDS011;4301;48.362;8.478;2023-05-14T09:00:17;6.50;;;5.80;;
8526;SDS011;4301;48.362;8.478;2023-05-14T09:02:45;5.43;;;4.93;;
8526;SDS011;4301;48.362;8.478;2023-05-14T09:05:12;5.63;;;5.03;;
8526;SDS011;4301;48.362;8.478;2023-05-14T09:07:43;4.90;;;4.40;;
8526;SDS011;4301;48.362;8.478;2023-05-14T09:10:10;5.47;;;4.93;;
8526;SDS011;4301;48.362;8.478;2023-05-14T09:12:39;5.60;;;5.10;;
8526;SDS011;4301;48.362;8.478;2023-05-14T09:15:06;5.50;;;5.00;;
8526;SDS011;4301;48.362;8.478;2023-05-14T09:17:33;5.40;;;4.90;;
8526;SDS011;4301;48.362;8.478;2023-05-14T09:20:00;5.20;;;4.70;;
8526;SDS011;4301;48.362;8.478;2023-05-14T09:22:28;4.80;;;4.40;;
8526;SDS011;4301;48.362;8.478;2023-05-14T09:25:05;5.10;;;4.70;;
8526;SDS011;4301;48.362;8.478;2023-05-14T09:27:34;5.23;;;4.73;;
8526;SDS011;4301;48.362;8.478;2023-05-14T09:30:08;4.80;;;4.40;;
8526;SDS011;4301;48.362;8.478;2023-05-14T09:32:36;5.67;;;4.77;;
8526;SDS011;4301;48.362;8.478;2023-05-14T09:35:10;5.00;;;4.50;;
8526;SDS011;4301;48.362;8.478;2023-05-14T09:37:41;4.57;;;4.20;;
8526;SDS011;4301;48.362;8.478;2023-05-14T09:40:10;4.70;;;4.30;;
8526;SDS011;4301;48.362;8.478;2023-05-14T09:42:38;4.30;;;3.93;;
8526;SDS011;4301;48.362;8.478;2023-05-14T09:45:06;4.20;;;3.90;;
8526;SDS011;4301;48.362;8.478;2023-05-14T09:47:33;4.40;;;4.00;;
8526;SDS011;4301;48.362;8.478;2023-05-14T09:50:00;4.20;;;3.80;;
8526;SDS011;4301;48.362;8.478;2023-05-14T09:52:28;3.60;;;3.30;;
8526;SDS011;4301;48.362;8.478;2023-05-14T09:54:55;4.10;;;3.77;;
8526;SDS011;4301;48.362;8.478;2023-05-14T09:57:23;3.90;;;3.60;;
8526;SDS011;4301;48.362;8.478;2023-05-14T09:59:51;5.17;;;4.60;;
8526;SDS011;4301;48.362;8.478;2023-05-14T10:02:20;4.97;;;4.57;;
8526;SDS011;4301;48.362;8.478;2023-05-14T10:04:49;4.80;;;4.30;;
8526;SDS011;4301;48.362;8.478;2023-05-14T10:07:18;4.00;;;3.70;;
8526;SDS011;4301;48.362;8.478;2023-05-14T10:09:48;5.23;;;4.00;;
8526;SDS011;4301;48.362;8.478;2023-05-14T10:12:20;4.13;;;3.77;;
8526;SDS011;4301;48.362;8.478;2023-05-14T10:14:49;4.97;;;3.40;;
8526;SDS011;4301;48.362;8.478;2023-05-14T10:17:20;3.80;;;3.50;;
8526;SDS011;4301;48.362;8.478;2023-05-14T10:19:49;3.03;;;2.83;;
8526;SDS011;4301;48.362;8.478;2023-05-14T10:22:21;3.57;;;3.27;;
8526;SDS011;4301;48.362;8.478;2023-05-14T10:24:49;3.30;;;3.10;;
8526;SDS011;4301;48.362;8.478;2023-05-14T10:27:17;3.47;;;3.17;;
8526;SDS011;4301;48.362;8.478;2023-05-14T10:29:49;3.57;;;3.27;;
8526;SDS011;4301;48.362;8.478;2023-05-14T10:32:19;3.83;;;3.53;;
8526;SDS011;4301;48.362;8.478;2023-05-14T10:34:48;3.97;;;3.67;;
8526;SDS011;4301;48.362;8.478;2023-05-14T10:37:16;5.23;;;3.83;;
8526;SDS011;4301;48.362;8.478;2023-05-14T10:39:45;4.70;;;4.30;;
8526;SDS011;4301;48.362;8.478;2023-05-14T10:42:15;4.17;;;3.77;;
8526;SDS011;4301;48.362;8.478;2023-05-14T10:44:47;4.13;;;3.83;;
8526;SDS011;4301;48.362;8.478;2023-05-14T10:47:22;3.70;;;3.40;;
8526;SDS011;4301;48.362;8.478;2023-05-14T10:49:51;4.20;;;3.90;;
8526;SDS011;4301;48.362;8.478;2023-05-14T10:52:19;3.97;;;3.67;;
8526;SDS011;4301;48.362;8.478;2023-05-14T10:54:50;4.03;;;3.63;;
8526;SDS011;4301;48.362;8.478;2023-05-14T10:57:18;3.47;;;3.27;;
8526;SDS011;4301;48.362;8.478;2023-05-14T10:59:46;4.20;;;3.90;;
8526;SDS011;4301;48.362;8.478;2023-05-14T11:02:21;3.87;;;3.57;;
8526;SDS011;4301;48.362;8.478;2023-05-14T11:04:56;3.87;;;3.57;;
8526;SDS011;4301;48.362;8.478;2023-05-14T11:07:28;3.57;;;3.27;;
8526;SDS011;4301;48.362;8.478;2023-05-14T11:10:00;3.73;;;3.43;;
8526;SDS011;4301;48.362;8.478;2023-05-14T11:12:29;3.37;;;3.17;;
8526;SDS011;4301;48.362;8.478;2023-05-14T11:14:57;4.07;;;3.70;;
8526;SDS011;4301;48.362;8.478;2023-05-14T11:17:26;3.93;;;3.63;;
8526;SDS011;4301;48.362;8.478;2023-05-14T11:19:54;3.63;;;3.30;;
8526;SDS011;4301;48.362;8.478;2023-05-14T11:22:21;3.80;;;3.50;;
8526;SDS011;4301;48.362;8.478;2023-05-14T11:24:48;4.00;;;3.70;;
8526;SDS011;4301;48.362;8.478;2023-05-14T11:27:16;3.70;;;3.40;;
8526;SDS011;4301;48.362;8.478;2023-05-14T11:29:43;4.03;;;3.63;;
8526;SDS011;4301;48.362;8.478;2023-05-14T11:32:11;4.00;;;3.70;;
8526;SDS011;4301;48.362;8.478;2023-05-14T11:34:41;3.70;;;3.40;;
8526;SDS011;4301;48.362;8.478;2023-05-14T11:37:10;3.63;;;3.33;;
8526;SDS011;4301;48.362;8.478;2023-05-14T11:39:38;3.87;;;3.57;;
8526;SDS011;4301;48.362;8.478;2023-05-14T11:42:11;3.93;;;3.63;;
8526;SDS011;4301;48.362;8.478;2023-05-14T11:44:41;4.57;;;4.17;;
8526;SDS011;4301;48.362;8.478;2023-05-14T11:47:10;4.60;;;4.20;;
8526;SDS011;4301;48.362;8.478;2023-05-14T11:49:37;4.70;;;4.13;;
8526;SDS011;4301;48.362;8.478;2023-05-14T11:52:06;4.43;;;4.03;;
8526;SDS011;4301;48.362;8.478;2023-05-14T11:54:35;3.97;;;3.63;;
8526;SDS011;4301;48.362;8.478;2023-05-14T11:57:06;4.07;;;3.70;;
8526;SDS011;4301;48.362;8.478;2023-05-14T11:59:34;4.93;;;3.93;;
8526;SDS011;4301;48.362;8.478;2023-05-14T12:02:02;3.97;;;3.73;;
8526;SDS011;4301;48.362;8.478;2023-05-14T12:04:30;4.27;;;3.97;;
8526;SDS011;4301;48.362;8.478;2023-05-14T12:06:57;4.57;;;4.20;;
8526;SDS011;4301;48.362;8.478;2023-05-14T12:09:26;4.50;;;4.10;;
8526;SDS011;4301;48.362;8.478;2023-05-14T12:11:53;4.57;;;4.20;;
8526;SDS011;4301;48.362;8.478;2023-05-14T12:14:21;4.03;;;3.70;;
8526;SDS011;4301;48.362;8.478;2023-05-14T12:16:49;4.10;;;3.80;;
8526;SDS011;4301;48.362;8.478;2023-05-14T12:19:17;3.80;;;3.50;;
8526;SDS011;4301;48.362;8.478;2023-05-14T12:21:46;4.30;;;3.90;;
8526;SDS011;4301;48.362;8.478;2023-05-14T12:24:16;4.77;;;4.37;;
8526;SDS011;4301;48.362;8.478;2023-05-14T12:26:44;3.40;;;3.20;;
8526;SDS011;4301;48.362;8.478;2023-05-14T12:29:13;2.80;;;2.60;;
8526;SDS011;4301;48.362;8.478;2023-05-14T12:31:43;2.60;;;2.40;;
8526;SDS011;4301;48.362;8.478;2023-05-14T12:34:12;3.67;;;2.90;;
8526;SDS011;4301;48.362;8.478;2023-05-14T12:36:39;2.33;;;2.20;;
8526;SDS011;4301;48.362;8.478;2023-05-14T12:39:06;4.80;;;2.43;;
8526;SDS011;4301;48.362;8.478;2023-05-14T12:41:34;1.90;;;1.80;;
8526;SDS011;4301;48.362;8.478;2023-05-14T12:44:02;1.90;;;1.73;;
8526;SDS011;4301;48.362;8.478;2023-05-14T12:46:30;3.17;;;2.87;;
8526;SDS011;4301;48.362;8.478;2023-05-14T12:48:59;2.30;;;2.20;;
8526;SDS011;4301;48.362;8.478;2023-05-14T12:51:26;1.73;;;1.63;;
8526;SDS011;4301;48.362;8.478;2023-05-14T12:53:53;1.90;;;1.80;;
8526;SDS011;4301;48.362;8.478;2023-05-14T12:56:20;2.00;;;1.90;;
8526;SDS011;4301;48.362;8.478;2023-05-14T12:58:51;2.10;;;2.00;;
8526;SDS011;4301;48.362;8.478;2023-05-14T13:01:20;2.23;;;2.10;;
8526;SDS011;4301;48.362;8.478;2023-05-14T13:03:47;2.20;;;2.10;;
8526;SDS011;4301;48.362;8.478;2023-05-14T13:06:14;2.50;;;2.30;;
8526;SDS011;4301;48.362;8.478;2023-05-14T13:08:42;2.70;;;2.53;;
8526;SDS011;4301;48.362;8.478;2023-05-14T13:11:09;2.70;;;2.50;;
8526;SDS011;4301;48.362;8.478;2023-05-14T13:13:36;2.27;;;2.17;;
8526;SDS011;4301;48.362;8.478;2023-05-14T13:16:03;3.00;;;2.80;;
8526;SDS011;4301;48.362;8.478;2023-05-14T13:18:32;2.90;;;2.50;;
8526;SDS011;4301;48.362;8.478;2023-05-14T13:20:59;3.07;;;2.87;;
8526;SDS011;4301;48.362;8.478;2023-05-14T13:23:28;3.30;;;3.10;;
8526;SDS011;4301;48.362;8.478;2023-05-14T13:25:55;5.67;;;3.30;;
8526;SDS011;4301;48.362;8.478;2023-05-14T13:28:22;2.90;;;2.70;;
8526;SDS011;4301;48.362;8.478;2023-05-14T13:31:02;4.67;;;2.87;;
8526;SDS011;4301;48.362;8.478;2023-05-14T13:33:33;3.47;;;3.17;;
8526;SDS011;4301;48.362;8.478;2023-05-14T13:36:01;3.30;;;3.10;;
8526;SDS011;4301;48.362;8.478;2023-05-14T13:38:28;3.90;;;3.60;;
8526;SDS011;4301;48.362;8.478;2023-05-14T13:40:55;3.40;;;3.10;;
8526;SDS011;4301;48.362;8.478;2023-05-14T13:43:26;3.33;;;3.07;;
8526;SDS011;4301;48.362;8.478;2023-05-14T13:45:53;3.37;;;2.93;;
8526;SDS011;4301;48.362;8.478;2023-05-14T13:48:21;2.87;;;2.63;;
8526;SDS011;4301;48.362;8.478;2023-05-14T13:50:49;6.20;;;2.70;;
8526;SDS011;4301;48.362;8.478;2023-05-14T13:53:17;2.90;;;2.70;;
8526;SDS011;4301;48.362;8.478;2023-05-14T13:55:44;2.90;;;2.70;;
8526;SDS011;4301;48.362;8.478;2023-05-14T13:58:11;3.00;;;2.80;;
8526;SDS011;4301;48.362;8.478;2023-05-14T14:00:38;2.70;;;2.60;;
8526;SDS011;4301;48.362;8.478;2023-05-14T14:03:05;2.87;;;2.67;;
8526;SDS011;4301;48.362;8.478;2023-05-14T14:05:33;3.40;;;3.10;;
8526;SDS011;4301;48.362;8.478;2023-05-14T14:08:02;6.13;;;2.80;;
8526;SDS011;4301;48.362;8.478;2023-05-14T14:10:29;2.63;;;2.43;;
8526;SDS011;4301;48.362;8.478;2023-05-14T14:12:56;2.70;;;2.50;;
8526;SDS011;4301;48.362;8.478;2023-05-14T14:15:23;2.83;;;2.63;;
8526;SDS011;4301;48.362;8.478;2023-05-14T14:17:50;3.17;;;2.97;;
8526;SDS011;4301;48.362;8.478;2023-05-14T14:20:17;4.30;;;3.90;;
8526;SDS011;4301;48.362;8.478;2023-05-14T14:22:44;3.10;;;2.90;;
8526;SDS011;4301;48.362;8.478;2023-05-14T14:25:12;3.17;;;2.97;;
8526;SDS011;4301;48.362;8.478;2023-05-14T14:27:39;3.30;;;3.10;;
8526;SDS011;4301;48.362;8.478;2023-05-14T14:30:07;3.20;;;2.90;;
8526;SDS011;4301;48.362;8.478;2023-05-14T14:32:39;4.20;;;3.80;;
8526;SDS011;4301;48.362;8.478;2023-05-14T14:35:07;5.33;;;4.80;;
8526;SDS011;4301;48.362;8.478;2023-05-14T14:37:34;12.13;;;6.97;;
8526;SDS011;4301;48.362;8.478;2023-05-14T14:40:02;3.50;;;3.20;;
8526;SDS011;4301;48.362;8.478;2023-05-14T14:42:32;3.63;;;3.33;;
8526;SDS011;4301;48.362;8.478;2023-05-14T14:44:59;4.97;;;3.47;;
8526;SDS011;4301;48.362;8.478;2023-05-14T14:47:26;7.30;;;4.77;;
8526;SDS011;4301;48.362;8.478;2023-05-14T14:49:54;3.73;;;3.40;;
8526;SDS011;4301;48.362;8.478;2023-05-14T14:52:21;5.93;;;5.33;;
8526;SDS011;4301;48.362;8.478;2023-05-14T14:54:48;2.50;;;2.30;;
8526;SDS011;4301;48.362;8.478;2023-05-14T14:57:15;2.43;;;2.23;;
8526;SDS011;4301;48.362;8.478;2023-05-14T14:59:43;1.87;;;1.77;;
8526;SDS011;4301;48.362;8.478;2023-05-14T15:02:11;1.60;;;1.50;;
8526;SDS011;4301;48.362;8.478;2023-05-14T15:04:38;2.83;;;1.90;;
8526;SDS011;4301;48.362;8.478;2023-05-14T15:07:04;1.70;;;1.60;;
8526;SDS011;4301;48.362;8.478;2023-05-14T15:09:31;1.60;;;1.50;;
8526;SDS011;4301;48.362;8.478;2023-05-14T15:11:58;1.60;;;1.50;;
8526;SDS011;4301;48.362;8.478;2023-05-14T15:14:25;2.37;;;2.17;;
8526;SDS011;4301;48.362;8.478;2023-05-14T15:16:54;2.43;;;2.00;;
8526;SDS011;4301;48.362;8.478;2023-05-14T15:19:21;2.30;;;2.10;;